createdAt,value
2017-08-29T00:00:06.252Z,821.90
2017-08-29T00:01:06.908Z,821.92
2017-08-29T00:02:07.530Z,821.92
2017-08-29T00:03:08.144Z,821.95
2017-08-29T00:04:08.761Z,821.93
2017-08-29T00:05:09.478Z,821.94
2017-08-29T00:06:10.103Z,821.92
2017-08-29T00:07:10.724Z,821.94
2017-08-29T00:08:11.340Z,821.91
2017-08-29T00:09:11.955Z,821.91
2017-08-29T00:10:12.674Z,821.92
2017-08-29T00:11:13.297Z,821.89
2017-08-29T00:12:13.910Z,821.91
2017-08-29T00:13:14.584Z,821.92
2017-08-29T00:14:15.176Z,821.90
2017-08-29T00:15:15.893Z,821.92
2017-08-29T00:16:16.519Z,821.92
2017-08-29T00:17:17.134Z,821.93
2017-08-29T00:18:17.749Z,821.88
2017-08-29T00:19:18.366Z,821.91
2017-08-29T00:20:19.087Z,821.92
2017-08-29T00:21:19.707Z,821.90
2017-08-29T00:22:20.358Z,821.88
2017-08-29T00:23:20.975Z,821.90
2017-08-29T00:24:21.591Z,821.91
2017-08-29T00:25:22.311Z,821.90
2017-08-29T00:26:22.958Z,821.92
2017-08-29T00:27:23.609Z,821.90
2017-08-29T00:28:24.226Z,821.88
2017-08-29T00:29:24.878Z,821.88
2017-08-29T00:30:25.596Z,821.89
2017-08-29T00:31:26.211Z,821.85
2017-08-29T00:32:26.828Z,821.82
2017-08-29T00:33:27.483Z,821.80
2017-08-29T00:34:28.098Z,821.82
2017-08-29T00:35:28.816Z,821.78
2017-08-29T00:36:29.434Z,821.83
2017-08-29T00:37:30.063Z,821.75
2017-08-29T00:38:30.668Z,821.77
2017-08-29T00:39:31.286Z,821.77
2017-08-29T00:40:32.034Z,821.77
2017-08-29T00:41:32.683Z,821.78
2017-08-29T00:42:33.302Z,821.80
2017-08-29T00:43:33.921Z,821.79
2017-08-29T00:44:34.539Z,821.82
2017-08-29T00:45:35.295Z,821.80
2017-08-29T00:46:35.910Z,821.83
2017-08-29T00:47:36.532Z,821.80
2017-08-29T00:48:37.151Z,821.80
2017-08-29T00:49:37.771Z,821.79
2017-08-29T00:50:38.517Z,821.82
2017-08-29T00:51:39.141Z,821.82
2017-08-29T00:52:39.756Z,821.81
2017-08-29T00:53:40.404Z,821.77
2017-08-29T00:54:41.021Z,821.77
2017-08-29T00:55:41.740Z,821.80
2017-08-29T00:56:42.368Z,821.78
2017-08-29T00:57:42.976Z,821.73
2017-08-29T00:58:43.630Z,821.77
2017-08-29T00:59:44.279Z,821.76
2017-08-29T01:00:44.997Z,821.75
2017-08-29T01:01:45.615Z,821.77
2017-08-29T01:02:46.270Z,821.77
2017-08-29T01:03:46.891Z,821.74
2017-08-29T01:04:47.507Z,821.77
2017-08-29T01:05:48.224Z,821.76
2017-08-29T01:06:48.846Z,821.75
2017-08-29T01:07:49.462Z,821.75
2017-08-29T01:08:50.079Z,821.75
2017-08-29T01:09:50.695Z,821.72
2017-08-29T01:10:51.413Z,821.75
2017-08-29T01:11:52.031Z,821.71
2017-08-29T01:12:52.687Z,821.71
2017-08-29T01:13:53.302Z,821.72
2017-08-29T01:14:53.919Z,821.67
2017-08-29T01:15:54.675Z,821.71
2017-08-29T01:16:55.289Z,821.73
2017-08-29T01:17:55.911Z,821.70
2017-08-29T01:18:56.528Z,821.73
2017-08-29T01:19:57.146Z,821.71
2017-08-29T01:20:57.861Z,821.71
2017-08-29T01:21:58.483Z,821.71
2017-08-29T01:22:59.097Z,821.72
2017-08-29T01:23:59.714Z,821.74
2017-08-29T01:25:00.332Z,821.74
2017-08-29T01:26:01.048Z,821.73
2017-08-29T01:27:01.665Z,821.76
2017-08-29T01:28:02.283Z,821.77
2017-08-29T01:29:02.906Z,821.74
2017-08-29T01:30:03.530Z,821.75
2017-08-29T01:31:04.476Z,821.74
2017-08-29T01:32:05.091Z,821.76
2017-08-29T01:33:05.709Z,821.74
2017-08-29T01:34:06.325Z,821.76
2017-08-29T01:35:06.950Z,821.73
2017-08-29T01:36:07.864Z,821.74
2017-08-29T01:37:08.482Z,821.73
2017-08-29T01:38:09.103Z,821.73
2017-08-29T01:39:09.716Z,821.71
2017-08-29T01:40:10.341Z,821.68
2017-08-29T01:41:11.054Z,821.72
2017-08-29T01:42:11.676Z,821.69
2017-08-29T01:43:12.290Z,821.69
2017-08-29T01:44:12.906Z,821.67
2017-08-29T01:45:13.528Z,821.65
2017-08-29T01:46:14.441Z,821.68
2017-08-29T01:47:15.060Z,821.67
2017-08-29T01:48:15.678Z,821.64
2017-08-29T01:49:16.294Z,821.64
2017-08-29T01:50:16.912Z,821.62
2017-08-29T01:51:17.628Z,821.62
2017-08-29T01:52:18.279Z,821.60
2017-08-29T01:53:18.898Z,821.61
2017-08-29T01:54:19.516Z,821.57
2017-08-29T01:55:20.134Z,821.55
2017-08-29T01:56:20.852Z,821.58
2017-08-29T01:57:21.474Z,821.53
2017-08-29T01:58:22.089Z,821.53
2017-08-29T01:59:22.711Z,821.53
2017-08-29T02:00:23.325Z,821.51
2017-08-29T02:01:24.248Z,821.54
2017-08-29T02:02:24.897Z,821.48
2017-08-29T02:03:25.518Z,821.51
2017-08-29T02:04:26.134Z,821.51
2017-08-29T02:05:26.758Z,821.50
2017-08-29T02:06:27.477Z,821.51
2017-08-29T02:07:28.097Z,821.49
2017-08-29T02:08:28.745Z,821.49
2017-08-29T02:09:29.363Z,821.47
2017-08-29T02:10:29.981Z,821.46
2017-08-29T02:11:30.697Z,821.46
2017-08-29T02:12:31.316Z,821.43
2017-08-29T02:13:31.937Z,821.47
2017-08-29T02:14:32.554Z,821.46
2017-08-29T02:15:33.172Z,821.42
2017-08-29T02:16:33.921Z,821.43
2017-08-29T02:17:34.543Z,821.45
2017-08-29T02:18:35.157Z,821.46
2017-08-29T02:19:35.780Z,821.46
2017-08-29T02:20:36.399Z,821.46
2017-08-29T02:21:37.147Z,821.46
2017-08-29T02:22:37.764Z,821.47
2017-08-29T02:23:38.386Z,821.45
2017-08-29T02:24:38.996Z,821.41
2017-08-29T02:25:39.615Z,821.43
2017-08-29T02:26:40.333Z,821.43
2017-08-29T02:27:40.948Z,821.43
2017-08-29T02:28:41.566Z,821.42
2017-08-29T02:29:42.186Z,821.43
2017-08-29T02:30:42.809Z,821.43
2017-08-29T02:31:43.523Z,821.43
2017-08-29T02:32:44.145Z,821.45
2017-08-29T02:33:44.765Z,821.44
2017-08-29T02:34:45.378Z,821.43
2017-08-29T02:35:45.994Z,821.41
2017-08-29T02:36:46.710Z,821.41
2017-08-29T02:37:47.329Z,821.40
2017-08-29T02:38:47.946Z,821.42
2017-08-29T02:39:48.570Z,821.42
2017-08-29T02:40:49.193Z,821.43
2017-08-29T02:41:49.899Z,821.39
2017-08-29T02:42:50.516Z,821.40
2017-08-29T02:43:51.134Z,821.38
2017-08-29T02:44:51.751Z,821.41
2017-08-29T02:45:52.401Z,821.40
2017-08-29T02:46:53.117Z,821.40
2017-08-29T02:47:53.733Z,821.40
2017-08-29T02:48:54.348Z,821.40
2017-08-29T02:49:54.966Z,821.38
2017-08-29T02:50:55.589Z,821.36
2017-08-29T02:51:56.301Z,821.36
2017-08-29T02:52:56.923Z,821.32
2017-08-29T02:53:57.544Z,821.32
2017-08-29T02:54:58.161Z,821.31
2017-08-29T02:55:58.777Z,821.33
2017-08-29T02:56:59.495Z,821.31
2017-08-29T02:58:00.111Z,821.29
2017-08-29T02:59:00.729Z,821.26
2017-08-29T03:00:01.352Z,821.27
2017-08-29T03:01:01.966Z,821.21
2017-08-29T03:02:02.683Z,821.25
2017-08-29T03:03:03.300Z,821.22
2017-08-29T03:04:03.917Z,821.22
2017-08-29T03:05:04.539Z,821.22
2017-08-29T03:06:05.153Z,821.21
2017-08-29T03:07:05.868Z,821.21
2017-08-29T03:08:06.486Z,821.23
2017-08-29T03:09:07.102Z,821.19
2017-08-29T03:10:07.725Z,821.19
2017-08-29T03:11:08.373Z,821.17
2017-08-29T03:12:09.088Z,821.20
2017-08-29T03:13:09.707Z,821.17
2017-08-29T03:14:10.324Z,821.15
2017-08-29T03:15:10.940Z,821.16
2017-08-29T03:16:11.556Z,821.18
2017-08-29T03:17:12.275Z,821.16
2017-08-29T03:18:12.898Z,821.16
2017-08-29T03:19:13.549Z,821.17
2017-08-29T03:20:14.171Z,821.18
2017-08-29T03:21:14.819Z,821.15
2017-08-29T03:22:15.686Z,821.15
2017-08-29T03:23:16.342Z,821.13
2017-08-29T03:24:16.963Z,821.14
2017-08-29T03:25:17.613Z,821.12
2017-08-29T03:26:18.229Z,821.13
2017-08-29T03:27:19.144Z,821.13
2017-08-29T03:28:19.763Z,821.14
2017-08-29T03:29:20.380Z,821.15
2017-08-29T03:30:21.004Z,821.14
2017-08-29T03:31:21.618Z,821.14
2017-08-29T03:32:22.334Z,821.16
2017-08-29T03:33:22.953Z,821.10
2017-08-29T03:34:23.601Z,821.11
2017-08-29T03:35:24.225Z,821.12
2017-08-29T03:36:24.839Z,821.09
2017-08-29T03:37:25.554Z,821.11
2017-08-29T03:38:26.171Z,821.10
2017-08-29T03:39:26.787Z,821.13
2017-08-29T03:40:27.405Z,821.13
2017-08-29T03:41:28.022Z,821.11
2017-08-29T03:42:28.745Z,821.09
2017-08-29T03:43:29.364Z,821.08
2017-08-29T03:44:29.978Z,821.07
2017-08-29T03:45:30.594Z,821.05
2017-08-29T03:46:31.209Z,821.10
2017-08-29T03:47:31.928Z,821.04
2017-08-29T03:48:32.542Z,821.05
2017-08-29T03:49:33.160Z,821.09
2017-08-29T03:50:33.810Z,821.05
2017-08-29T03:51:34.428Z,821.07
2017-08-29T03:52:35.149Z,821.06
2017-08-29T03:53:35.766Z,821.07
2017-08-29T03:54:36.386Z,821.06
2017-08-29T03:55:37.007Z,821.09
2017-08-29T03:56:37.620Z,821.11
2017-08-29T03:57:38.343Z,821.06
2017-08-29T03:58:38.996Z,821.11
2017-08-29T03:59:39.616Z,821.12
2017-08-29T04:00:40.235Z,821.12
2017-08-29T04:01:40.887Z,821.12
2017-08-29T04:02:41.642Z,821.11
2017-08-29T04:03:42.257Z,821.09
2017-08-29T04:04:42.873Z,821.08
2017-08-29T04:05:43.497Z,821.12
2017-08-29T04:06:44.118Z,821.13
2017-08-29T04:07:44.862Z,821.13
2017-08-29T04:08:45.479Z,821.15
2017-08-29T04:09:46.095Z,821.16
2017-08-29T04:10:46.712Z,821.15
2017-08-29T04:11:47.332Z,821.15
2017-08-29T04:12:48.085Z,821.15
2017-08-29T04:13:48.704Z,821.18
2017-08-29T04:14:49.317Z,821.22
2017-08-29T04:15:49.976Z,821.19
2017-08-29T04:16:50.590Z,821.22
2017-08-29T04:17:51.335Z,821.23
2017-08-29T04:18:51.951Z,821.23
2017-08-29T04:19:52.567Z,821.23
2017-08-29T04:20:53.186Z,821.22
2017-08-29T04:21:53.801Z,821.26
2017-08-29T04:22:54.522Z,821.21
2017-08-29T04:23:55.173Z,821.21
2017-08-29T04:24:55.790Z,821.22
2017-08-29T04:25:56.406Z,821.19
2017-08-29T04:26:57.023Z,821.17
2017-08-29T04:27:57.795Z,821.15
2017-08-29T04:28:58.414Z,821.19
2017-08-29T04:29:59.032Z,821.20
2017-08-29T04:30:59.644Z,821.22
2017-08-29T04:32:00.265Z,821.23
2017-08-29T04:33:01.026Z,821.17
2017-08-29T04:34:01.644Z,821.20
2017-08-29T04:35:02.265Z,821.17
2017-08-29T04:36:02.881Z,821.17
2017-08-29T04:37:03.504Z,821.17
2017-08-29T04:38:04.266Z,821.19
2017-08-29T04:39:04.889Z,821.19
2017-08-29T04:40:05.509Z,821.17
2017-08-29T04:41:06.122Z,821.21
2017-08-29T04:42:06.737Z,821.20
2017-08-29T04:43:07.503Z,821.18
2017-08-29T04:44:08.119Z,821.19
2017-08-29T04:45:08.769Z,821.17
2017-08-29T04:46:09.384Z,821.22
2017-08-29T04:47:10.001Z,821.20
2017-08-29T04:48:10.768Z,821.20
2017-08-29T04:49:11.416Z,821.22
2017-08-29T04:50:12.032Z,821.25
2017-08-29T04:51:12.651Z,821.21
2017-08-29T04:52:13.273Z,821.22
2017-08-29T04:53:14.019Z,821.21
2017-08-29T04:54:14.633Z,821.23
2017-08-29T04:55:15.252Z,821.20
2017-08-29T04:56:15.870Z,821.21
2017-08-29T04:57:16.487Z,821.19
2017-08-29T04:58:17.406Z,821.22
2017-08-29T04:59:18.023Z,821.19
2017-08-29T05:00:18.638Z,821.20
2017-08-29T05:01:19.259Z,821.17
2017-08-29T05:02:19.875Z,821.20
2017-08-29T05:03:20.591Z,821.17
2017-08-29T05:04:21.207Z,821.19
2017-08-29T05:05:21.824Z,821.22
2017-08-29T05:06:22.442Z,821.18
2017-08-29T05:07:23.066Z,821.19
2017-08-29T05:08:23.781Z,821.14
2017-08-29T05:09:24.399Z,821.13
2017-08-29T05:10:25.049Z,821.12
2017-08-29T05:11:25.667Z,821.10
2017-08-29T05:12:26.316Z,821.12
2017-08-29T05:13:27.036Z,821.13
2017-08-29T05:14:27.658Z,821.12
2017-08-29T05:15:28.277Z,821.12
2017-08-29T05:16:28.898Z,821.13
2017-08-29T05:17:29.554Z,821.13
2017-08-29T05:18:30.269Z,821.12
2017-08-29T05:19:30.917Z,821.13
2017-08-29T05:20:31.539Z,821.18
2017-08-29T05:21:32.156Z,821.16
2017-08-29T05:22:32.776Z,821.16
2017-08-29T05:23:33.526Z,821.15
2017-08-29T05:24:34.144Z,821.14
2017-08-29T05:25:34.763Z,821.12
2017-08-29T05:26:35.412Z,821.15
2017-08-29T05:27:36.028Z,821.16
2017-08-29T05:28:36.748Z,821.20
2017-08-29T05:29:37.366Z,821.22
2017-08-29T05:30:37.988Z,821.21
2017-08-29T05:31:38.602Z,821.24
2017-08-29T05:32:39.221Z,821.26
2017-08-29T05:33:39.947Z,821.25
2017-08-29T05:34:40.560Z,821.26
2017-08-29T05:35:41.178Z,821.24
2017-08-29T05:36:41.796Z,821.26
2017-08-29T05:37:42.414Z,821.28
2017-08-29T05:38:43.137Z,821.28
2017-08-29T05:39:43.753Z,821.27
2017-08-29T05:40:44.371Z,821.28
2017-08-29T05:41:44.987Z,821.27
2017-08-29T05:42:45.605Z,821.27
2017-08-29T05:43:46.328Z,821.25
2017-08-29T05:44:46.973Z,821.22
2017-08-29T05:45:47.598Z,821.21
2017-08-29T05:46:48.217Z,821.23
2017-08-29T05:47:48.831Z,821.19
2017-08-29T05:48:49.564Z,821.19
2017-08-29T05:49:50.175Z,821.19
2017-08-29T05:50:50.800Z,821.15
2017-08-29T05:51:51.415Z,821.17
2017-08-29T05:52:52.035Z,821.12
2017-08-29T05:53:52.752Z,821.15
2017-08-29T05:54:53.407Z,821.15
2017-08-29T05:55:54.022Z,821.18
2017-08-29T05:56:54.643Z,821.14
2017-08-29T05:57:55.266Z,821.17
2017-08-29T05:58:55.980Z,821.16
2017-08-29T05:59:56.597Z,821.17
2017-08-29T06:00:57.214Z,821.09
2017-08-29T06:01:57.833Z,821.11
2017-08-29T06:02:58.457Z,821.13
2017-08-29T06:03:59.321Z,821.09
2017-08-29T06:04:59.972Z,821.10
2017-08-29T06:06:00.622Z,821.08
2017-08-29T06:07:01.238Z,821.09
2017-08-29T06:08:01.856Z,821.12
2017-08-29T06:09:02.582Z,821.09
2017-08-29T06:10:03.236Z,821.12
2017-08-29T06:11:03.853Z,821.11
2017-08-29T06:12:04.469Z,821.12
2017-08-29T06:13:05.086Z,821.10
2017-08-29T06:14:05.803Z,821.12
2017-08-29T06:15:06.428Z,821.10
2017-08-29T06:16:07.050Z,821.10
2017-08-29T06:17:07.703Z,821.13
2017-08-29T06:18:08.319Z,821.18
2017-08-29T06:19:09.035Z,821.18
2017-08-29T06:20:09.659Z,821.19
2017-08-29T06:21:10.276Z,821.18
2017-08-29T06:22:10.896Z,821.19
2017-08-29T06:23:11.508Z,821.22
2017-08-29T06:24:12.226Z,821.23
2017-08-29T06:25:12.844Z,821.22
2017-08-29T06:26:13.467Z,821.21
2017-08-29T06:27:14.087Z,821.18
2017-08-29T06:28:14.702Z,821.19
2017-08-29T06:29:15.421Z,821.20
2017-08-29T06:30:16.037Z,821.15
2017-08-29T06:31:16.655Z,821.19
2017-08-29T06:32:17.274Z,821.17
2017-08-29T06:33:17.930Z,821.16
2017-08-29T06:34:18.660Z,821.18
2017-08-29T06:35:19.271Z,821.22
2017-08-29T06:36:19.898Z,821.17
2017-08-29T06:37:20.521Z,821.16
2017-08-29T06:38:21.136Z,821.14
2017-08-29T06:39:21.855Z,821.15
2017-08-29T06:40:22.473Z,821.16
2017-08-29T06:41:23.093Z,821.14
2017-08-29T06:42:23.741Z,821.11
2017-08-29T06:43:24.361Z,821.11
2017-08-29T06:44:25.080Z,821.10
2017-08-29T06:45:25.706Z,821.10
2017-08-29T06:46:26.321Z,821.12
2017-08-29T06:47:26.944Z,821.08
2017-08-29T06:48:27.559Z,821.08
2017-08-29T06:49:28.282Z,821.09
2017-08-29T06:50:28.900Z,821.10
2017-08-29T06:51:29.520Z,821.12
2017-08-29T06:52:30.141Z,821.06
2017-08-29T06:53:30.793Z,821.04
2017-08-29T06:54:31.516Z,821.03
2017-08-29T06:55:32.133Z,821.04
2017-08-29T06:56:32.751Z,821.03
2017-08-29T06:57:33.374Z,821.02
2017-08-29T06:58:33.995Z,821.04
2017-08-29T06:59:34.753Z,821.02
2017-08-29T07:00:35.369Z,821.00
2017-08-29T07:01:35.993Z,820.99
2017-08-29T07:02:36.614Z,821.02
2017-08-29T07:03:37.242Z,820.98
2017-08-29T07:04:37.957Z,820.98
2017-08-29T07:05:38.583Z,820.97
2017-08-29T07:06:39.200Z,820.99
2017-08-29T07:07:39.822Z,820.98
2017-08-29T07:08:40.443Z,821.01
2017-08-29T07:09:41.169Z,821.03
2017-08-29T07:10:41.785Z,821.04
2017-08-29T07:11:42.407Z,821.02
2017-08-29T07:12:43.027Z,821.07
2017-08-29T07:13:43.648Z,821.04
2017-08-29T07:14:44.369Z,821.05
2017-08-29T07:15:44.990Z,821.09
2017-08-29T07:16:45.642Z,821.13
2017-08-29T07:17:46.269Z,821.12
2017-08-29T07:18:46.886Z,821.12
2017-08-29T07:19:47.606Z,821.12
2017-08-29T07:20:48.261Z,821.10
2017-08-29T07:21:48.882Z,821.12
2017-08-29T07:22:49.502Z,821.12
2017-08-29T07:23:50.128Z,821.14
2017-08-29T07:24:50.848Z,821.11
2017-08-29T07:25:51.473Z,821.15
2017-08-29T07:26:52.127Z,821.15
2017-08-29T07:27:52.755Z,821.19
2017-08-29T07:28:53.372Z,821.16
2017-08-29T07:29:54.095Z,821.16
2017-08-29T07:30:54.716Z,821.17
2017-08-29T07:31:55.337Z,821.13
2017-08-29T07:32:55.958Z,821.17
2017-08-29T07:33:56.585Z,821.15
2017-08-29T07:34:57.306Z,821.13
2017-08-29T07:35:57.927Z,821.15
2017-08-29T07:36:58.553Z,821.16
2017-08-29T07:37:59.173Z,821.18
2017-08-29T07:38:59.799Z,821.16
2017-08-29T07:40:00.523Z,821.12
2017-08-29T07:41:01.142Z,821.17
2017-08-29T07:42:01.762Z,821.17
2017-08-29T07:43:02.389Z,821.17
2017-08-29T07:44:03.007Z,821.16
2017-08-29T07:45:03.762Z,821.17
2017-08-29T07:46:04.383Z,821.18
2017-08-29T07:47:05.004Z,821.17
2017-08-29T07:48:05.624Z,821.17
2017-08-29T07:49:06.245Z,821.13
2017-08-29T07:50:06.968Z,821.16
2017-08-29T07:51:07.588Z,821.19
2017-08-29T07:52:08.210Z,821.19
2017-08-29T07:53:08.840Z,821.23
2017-08-29T07:54:09.494Z,821.22
2017-08-29T07:55:10.214Z,821.22
2017-08-29T07:56:10.836Z,821.22
2017-08-29T07:57:11.456Z,821.21
2017-08-29T07:58:12.077Z,821.22
2017-08-29T07:59:12.698Z,821.25
2017-08-29T08:00:13.420Z,821.28
2017-08-29T08:01:14.077Z,821.29
2017-08-29T08:02:14.696Z,821.30
2017-08-29T08:03:15.316Z,821.30
2017-08-29T08:04:15.943Z,821.28
2017-08-29T08:05:16.669Z,821.28
2017-08-29T08:06:17.293Z,821.25
2017-08-29T08:07:17.916Z,821.22
2017-08-29T08:08:18.534Z,821.24
2017-08-29T08:09:19.156Z,821.25
2017-08-29T08:10:19.879Z,821.22
2017-08-29T08:11:20.497Z,821.23
2017-08-29T08:12:21.125Z,821.25
2017-08-29T08:13:21.743Z,821.19
2017-08-29T08:14:22.364Z,821.21
2017-08-29T08:15:23.087Z,821.18
2017-08-29T08:16:23.708Z,821.20
2017-08-29T08:17:24.329Z,821.20
2017-08-29T08:18:24.952Z,821.21
2017-08-29T08:19:25.572Z,821.25
2017-08-29T08:20:26.195Z,821.23
2017-08-29T08:21:26.815Z,821.25
2017-08-29T08:22:27.436Z,821.22
2017-08-29T08:23:28.064Z,821.28
2017-08-29T08:24:28.682Z,821.27
2017-08-29T08:25:29.405Z,821.29
2017-08-29T08:26:30.033Z,821.26
2017-08-29T08:27:30.687Z,821.27
2017-08-29T08:28:31.309Z,821.25
2017-08-29T08:29:31.930Z,821.25
2017-08-29T08:30:32.651Z,821.24
2017-08-29T08:31:33.272Z,821.24
2017-08-29T08:32:33.894Z,821.25
2017-08-29T08:33:34.519Z,821.25
2017-08-29T08:34:35.141Z,821.26
2017-08-29T08:35:35.862Z,821.27
2017-08-29T08:36:36.484Z,821.28
2017-08-29T08:37:37.113Z,821.32
2017-08-29T08:38:37.768Z,821.33
2017-08-29T08:39:38.396Z,821.33
2017-08-29T08:40:39.117Z,821.34
2017-08-29T08:41:39.773Z,821.35
2017-08-29T08:42:40.425Z,821.35
2017-08-29T08:43:41.054Z,821.38
2017-08-29T08:44:41.673Z,821.39
2017-08-29T08:45:42.394Z,821.38
2017-08-29T08:46:43.018Z,821.39
2017-08-29T08:47:43.640Z,821.39
2017-08-29T08:48:44.263Z,821.37
2017-08-29T08:49:44.883Z,821.33
2017-08-29T08:50:45.612Z,821.32
2017-08-29T08:51:46.241Z,821.37
2017-08-29T08:52:46.863Z,821.36
2017-08-29T08:53:47.523Z,821.33
2017-08-29T08:54:48.143Z,821.32
2017-08-29T08:55:48.865Z,821.37
2017-08-29T08:56:49.489Z,821.33
2017-08-29T08:57:50.145Z,821.33
2017-08-29T08:58:50.800Z,821.31
2017-08-29T08:59:51.429Z,821.29
2017-08-29T09:00:52.150Z,821.34
2017-08-29T09:01:52.775Z,821.30
2017-08-29T09:02:53.396Z,821.31
2017-08-29T09:03:54.019Z,821.30
2017-08-29T09:04:54.648Z,821.33
2017-08-29T09:05:55.370Z,821.31
2017-08-29T09:06:55.993Z,821.29
2017-08-29T09:07:56.615Z,821.29
2017-08-29T09:08:57.243Z,821.29
2017-08-29T09:09:57.863Z,821.32
2017-08-29T09:10:58.585Z,821.29
2017-08-29T09:11:59.216Z,821.32
2017-08-29T09:12:59.840Z,821.26
2017-08-29T09:14:00.461Z,821.29
2017-08-29T09:15:01.113Z,821.30
2017-08-29T09:16:01.835Z,821.29
2017-08-29T09:17:02.468Z,821.33
2017-08-29T09:18:03.121Z,821.28
2017-08-29T09:19:03.746Z,821.32
2017-08-29T09:20:04.400Z,821.33
2017-08-29T09:21:05.121Z,821.36
2017-08-29T09:22:05.743Z,821.35
2017-08-29T09:23:06.366Z,821.39
2017-08-29T09:24:06.989Z,821.38
2017-08-29T09:25:07.611Z,821.41
2017-08-29T09:26:08.349Z,821.38
2017-08-29T09:27:08.958Z,821.39
2017-08-29T09:28:09.587Z,821.38
2017-08-29T09:29:10.210Z,821.34
2017-08-29T09:30:10.838Z,821.35
2017-08-29T09:31:11.464Z,821.40
2017-08-29T09:32:12.118Z,821.39
2017-08-29T09:33:12.740Z,821.34
2017-08-29T09:34:13.370Z,821.37
2017-08-29T09:35:13.996Z,821.38
2017-08-29T09:36:14.715Z,821.39
2017-08-29T09:37:15.341Z,821.36
2017-08-29T09:38:15.998Z,821.37
2017-08-29T09:39:16.626Z,821.38
2017-08-29T09:40:17.247Z,821.37
2017-08-29T09:41:17.969Z,821.36
2017-08-29T09:42:18.592Z,821.34
2017-08-29T09:43:19.215Z,821.39
2017-08-29T09:44:19.839Z,821.40
2017-08-29T09:45:20.461Z,821.36
2017-08-29T09:46:21.192Z,821.41
2017-08-29T09:47:21.812Z,821.42
2017-08-29T09:48:22.438Z,821.37
2017-08-29T09:49:23.067Z,821.45
2017-08-29T09:50:23.689Z,821.42
2017-08-29T09:51:24.412Z,821.35
2017-08-29T09:52:25.034Z,821.35
2017-08-29T09:53:25.690Z,821.33
2017-08-29T09:54:26.314Z,821.34
2017-08-29T09:55:26.945Z,821.34
2017-08-29T09:56:27.665Z,821.30
2017-08-29T09:57:28.289Z,821.33
2017-08-29T09:58:28.917Z,821.31
2017-08-29T09:59:29.537Z,821.32
2017-08-29T10:00:30.163Z,821.33
2017-08-29T10:01:30.886Z,821.34
2017-08-29T10:02:31.521Z,821.33
2017-08-29T10:03:32.138Z,821.33
2017-08-29T10:04:32.761Z,821.25
2017-08-29T10:05:33.386Z,821.25
2017-08-29T10:06:34.115Z,821.25
2017-08-29T10:07:34.737Z,821.27
2017-08-29T10:08:35.361Z,821.23
2017-08-29T10:09:35.984Z,821.27
2017-08-29T10:10:36.614Z,821.26
2017-08-29T10:11:37.337Z,821.23
2017-08-29T10:12:37.966Z,821.27
2017-08-29T10:13:38.589Z,821.29
2017-08-29T10:14:39.249Z,821.26
2017-08-29T10:15:39.873Z,821.24
2017-08-29T10:16:40.603Z,821.24
2017-08-29T10:17:41.227Z,821.22
2017-08-29T10:18:41.851Z,821.21
2017-08-29T10:19:42.476Z,821.23
2017-08-29T10:20:43.100Z,821.17
2017-08-29T10:21:43.827Z,821.18
2017-08-29T10:22:44.457Z,821.17
2017-08-29T10:23:45.084Z,821.14
2017-08-29T10:24:45.707Z,821.18
2017-08-29T10:25:46.330Z,821.14
2017-08-29T10:26:47.056Z,821.13
2017-08-29T10:27:47.688Z,821.12
2017-08-29T10:28:48.309Z,821.13
2017-08-29T10:29:48.939Z,821.11
2017-08-29T10:30:49.561Z,821.09
2017-08-29T10:31:50.288Z,821.11
2017-08-29T10:32:50.913Z,821.10
2017-08-29T10:33:51.541Z,821.13
2017-08-29T10:34:52.166Z,821.11
2017-08-29T10:35:52.789Z,821.10
2017-08-29T10:36:53.520Z,821.11
2017-08-29T10:37:54.146Z,821.08
2017-08-29T10:38:54.809Z,821.08
2017-08-29T10:39:55.430Z,821.08
2017-08-29T10:40:56.058Z,821.13
2017-08-29T10:41:56.784Z,821.06
2017-08-29T10:42:57.409Z,821.11
2017-08-29T10:43:58.040Z,821.04
2017-08-29T10:44:58.667Z,821.09
2017-08-29T10:45:59.292Z,821.10
2017-08-29T10:47:00.019Z,821.08
2017-08-29T10:48:00.646Z,821.06
2017-08-29T10:49:01.273Z,821.07
2017-08-29T10:50:01.905Z,821.04
2017-08-29T10:51:02.528Z,821.08
2017-08-29T10:52:03.262Z,821.11
2017-08-29T10:53:03.919Z,821.12
2017-08-29T10:54:04.582Z,821.04
2017-08-29T10:55:05.240Z,821.03
2017-08-29T10:56:05.869Z,821.02
2017-08-29T10:57:06.632Z,821.06
2017-08-29T10:58:07.304Z,821.02
2017-08-29T10:59:07.917Z,821.02
2017-08-29T11:00:08.550Z,821.05
2017-08-29T11:01:09.179Z,820.99
2017-08-29T11:02:09.905Z,821.00
2017-08-29T11:03:10.530Z,821.02
2017-08-29T11:04:11.156Z,821.00
2017-08-29T11:05:11.817Z,821.01
2017-08-29T11:06:12.445Z,821.02
2017-08-29T11:07:13.173Z,821.02
2017-08-29T11:08:13.801Z,820.97
2017-08-29T11:09:14.429Z,820.96
2017-08-29T11:10:15.089Z,821.00
2017-08-29T11:11:15.717Z,820.98
2017-08-29T11:12:16.445Z,820.97
2017-08-29T11:13:17.111Z,820.96
2017-08-29T11:14:17.741Z,820.98
2017-08-29T11:15:18.405Z,821.01
2017-08-29T11:16:19.030Z,821.01
2017-08-29T11:17:19.757Z,820.97
2017-08-29T11:18:20.415Z,820.96
2017-08-29T11:19:21.043Z,820.98
2017-08-29T11:20:21.669Z,820.96
2017-08-29T11:21:22.299Z,821.00
2017-08-29T11:22:23.029Z,820.96
2017-08-29T11:23:23.656Z,820.93
2017-08-29T11:24:24.285Z,820.98
2017-08-29T11:25:24.918Z,820.96
2017-08-29T11:26:25.587Z,820.97
2017-08-29T11:27:26.311Z,820.95
2017-08-29T11:28:26.939Z,820.90
2017-08-29T11:29:27.572Z,820.96
2017-08-29T11:30:28.196Z,820.89
2017-08-29T11:31:28.856Z,820.96
2017-08-29T11:32:29.586Z,820.93
2017-08-29T11:33:30.215Z,820.95
2017-08-29T11:34:30.842Z,820.93
2017-08-29T11:35:31.471Z,820.95
2017-08-29T11:36:32.137Z,820.87
2017-08-29T11:37:32.861Z,820.87
2017-08-29T11:38:33.489Z,820.82
2017-08-29T11:39:34.118Z,820.85
2017-08-29T11:40:34.746Z,820.87
2017-08-29T11:41:35.381Z,820.87
2017-08-29T11:42:36.141Z,820.83
2017-08-29T11:43:36.767Z,820.85
2017-08-29T11:44:37.396Z,820.84
2017-08-29T11:45:38.024Z,820.79
2017-08-29T11:46:38.654Z,820.82
2017-08-29T11:47:39.388Z,820.80
2017-08-29T11:48:40.012Z,820.78
2017-08-29T11:49:40.671Z,820.75
2017-08-29T11:50:41.337Z,820.77
2017-08-29T11:51:41.964Z,820.70
2017-08-29T11:52:42.726Z,820.78
2017-08-29T11:53:43.363Z,820.76
2017-08-29T11:54:43.990Z,820.76
2017-08-29T11:55:44.619Z,820.77
2017-08-29T11:56:45.255Z,820.77
2017-08-29T11:57:46.015Z,820.79
2017-08-29T11:58:46.643Z,820.77
2017-08-29T11:59:47.311Z,820.82
2017-08-29T12:00:47.937Z,820.75
2017-08-29T12:01:48.565Z,820.85
2017-08-29T12:02:49.295Z,820.78
2017-08-29T12:03:49.926Z,820.82
2017-08-29T12:04:50.552Z,820.75
2017-08-29T12:05:51.182Z,820.80
2017-08-29T12:06:51.812Z,820.80
2017-08-29T12:07:52.545Z,820.74
2017-08-29T12:08:53.172Z,820.68
2017-08-29T12:09:53.802Z,820.75
2017-08-29T12:10:54.430Z,820.74
2017-08-29T12:11:55.058Z,820.72
2017-08-29T12:12:55.988Z,820.67
2017-08-29T12:13:56.618Z,820.69
2017-08-29T12:14:57.250Z,820.72
2017-08-29T12:15:57.874Z,820.68
2017-08-29T12:16:58.505Z,820.71
2017-08-29T12:17:59.234Z,820.75
2017-08-29T12:18:59.864Z,820.69
2017-08-29T12:20:00.494Z,820.73
2017-08-29T12:21:01.123Z,820.75
2017-08-29T12:22:01.758Z,820.76
2017-08-29T12:23:02.489Z,820.75
2017-08-29T12:24:03.116Z,820.74
2017-08-29T12:25:03.776Z,820.76
2017-08-29T12:26:04.410Z,820.83
2017-08-29T12:27:05.041Z,820.78
2017-08-29T12:28:05.768Z,820.84
2017-08-29T12:29:06.403Z,820.78
2017-08-29T12:30:07.031Z,820.77
2017-08-29T12:31:07.661Z,820.77
2017-08-29T12:32:08.291Z,820.77
2017-08-29T12:33:09.019Z,820.81
2017-08-29T12:34:09.650Z,820.69
2017-08-29T12:35:10.285Z,820.74
2017-08-29T12:36:10.919Z,820.78